CheckWX is a tool to help pilots better visualize weather data.  It is not intended as a substitute for an official pre-flight weather briefing.

05:41:50 UTC

UTDL TAF
Khudzhand Airport
Khudzhand, Tajikistan
TAF UTDL 240300Z 2404/2413 07005MPS 6000 NSC TEMPO 2404/2406 VRB02MPS 3100 BR TEMPO 2408/2413 23005MPS

Feb-24@
04:00 UTC

Feb-24 @ 04:00 UTC

Feb-24@
13:00 UTC

Feb-24 @ 13:00 UTC

TAF UTDL 240300Z 2404/2413 07005MPS 6000 NSC
Wind
  • 070° at 10 KTS
Cloud Levels
  • No significant clouds

Feb-24@
04:00 UTC

Feb-24 @ 04:00 UTC

Feb-24@
06:00 UTC

Feb-24 @ 06:00 UTC

TEMPO 2404/2406 VRB02MPS 3100 BR

Temporary

Temporary Changes expected for less than half the time period

Wind
  • Variable at 4 KTS
Conditions
Mist

Feb-24@
08:00 UTC

Feb-24 @ 08:00 UTC

Feb-24@
13:00 UTC

Feb-24 @ 13:00 UTC

TEMPO 2408/2413 23005MPS

Temporary

Temporary Changes expected for less than half the time period

Wind
  • 230° at 10 KTS